Terminal Aerodrome Forecast
Issued by NWS

Current Version | Previous Version | Graphics & Text | Print | Product List | Glossary On
Versions: 1 2 3 4 5 6 7 8 9 10 11 12 13 14 15 16 17 18 19
000
FTUS41 KPBZ 142300
TAFMGW
TAF
KMGW 142325Z 1500/1524 20008KT P6SM -SHRA BKN040
     FM150500 25012KT 5SM -RA BR OVC015
     FM150900 30012KT 3SM -SHRA OVC007
     FM151700 30012G25KT 4SM -SHSN OVC015
     FM152100 32015G25KT P6SM BKN035=

USA.gov is the U.S. government's official web portal to all federal, state and local government web resources and services.